Time;durP1;ratioP1;P1;durP2;ratioP2;P2;SDS_P1;SDS_P2;PMS_P1;PMS_P2;Temp;Humidity;BMP_temperature;BMP_pressure;BME280_temperature;BME280_humidity;BME280_pressure;Samples;Min_cycle;Max_cycle;Signal;HPM_P1;HPM_P2
2022/07/23 00:01:08;;;;;;;28.55;17.08;;;;;;;14.77;100.00;101847.75;5259606;28;20497;-70
2022/07/23 00:03:39;;;;;;;31.27;15.73;;;;;;;14.72;100.00;101844.72;5245904;28;20021;-70
2022/07/23 00:06:09;;;;;;;30.75;17.45;;;;;;;14.71;100.00;101853.00;5262422;28;20016;-70
2022/07/23 00:08:40;;;;;;;27.83;16.27;;;;;;;14.72;100.00;101844.72;5266935;28;20035;-70
2022/07/23 00:11:11;;;;;;;28.83;17.27;;;;;;;14.70;100.00;101854.81;5248918;28;20025;-71
2022/07/23 00:13:41;;;;;;;32.45;17.17;;;;;;;14.63;100.00;101842.19;5245635;28;20052;-70
2022/07/23 00:16:12;;;;;;;28.40;16.30;;;;;;;14.55;100.00;101843.00;5245454;28;20024;-71
2022/07/23 00:18:42;;;;;;;32.78;17.13;;;;;;;14.46;100.00;101838.59;5245729;28;20870;-70
2022/07/23 00:21:13;;;;;;;28.85;17.50;;;;;;;14.39;100.00;101827.59;5252034;28;20023;-70
2022/07/23 00:23:43;;;;;;;33.35;16.98;;;;;;;14.34;100.00;101834.53;5265633;28;20019;-70
2022/07/23 00:26:14;;;;;;;29.60;17.15;;;;;;;14.31;100.00;101837.53;5245111;28;20549;-70
2022/07/23 00:28:44;;;;;;;33.22;17.58;;;;;;;14.33;100.00;101836.38;5260386;28;20027;-70
2022/07/23 00:31:15;;;;;;;28.20;16.52;;;;;;;14.31;100.00;101837.53;5266472;28;20027;-71
2022/07/23 00:33:45;;;;;;;29.25;17.13;;;;;;;14.23;100.00;101844.63;5263272;28;20063;-71
2022/07/23 00:36:16;;;;;;;36.08;18.80;;;;;;;14.16;100.00;101840.06;5254380;28;20016;-70
2022/07/23 00:38:46;;;;;;;33.10;17.58;;;;;;;14.04;100.00;101842.22;5249206;28;20027;-71
2022/07/23 00:41:17;;;;;;;35.42;18.90;;;;;;;13.93;100.00;101843.38;5245411;28;20025;-71
2022/07/23 00:43:47;;;;;;;31.17;18.63;;;;;;;13.85;100.00;101843.34;5243910;28;20028;-70
2022/07/23 00:46:20;;;;;;;31.13;18.70;;;;;;;13.77;100.00;101845.19;5245048;28;20111;-71
2022/07/23 00:48:51;;;;;;;31.40;17.73;;;;;;;13.69;100.00;101844.13;5265034;28;20035;-70
2022/07/23 00:51:21;;;;;;;32.63;19.08;;;;;;;13.63;100.00;101843.94;5265294;28;20024;-71
2022/07/23 00:53:52;;;;;;;32.58;20.00;;;;;;;13.58;100.00;101848.97;5252776;28;20020;-70
2022/07/23 00:56:23;;;;;;;28.63;17.48;;;;;;;13.53;100.00;101844.06;5257182;28;20017;-70
2022/07/23 00:58:54;;;;;;;29.05;16.90;;;;;;;13.52;100.00;101855.03;5254522;28;20533;-70
2022/07/23 01:01:24;;;;;;;34.85;18.35;;;;;;;13.53;100.00;101852.16;5248500;28;20123;-70
2022/07/23 01:03:55;;;;;;;28.08;16.55;;;;;;;13.57;100.00;101844.59;5245460;28;20119;-70
2022/07/23 01:06:26;;;;;;;31.45;18.08;;;;;;;13.51;100.00;101845.25;5263242;28;20016;-70
2022/07/23 01:08:56;;;;;;;32.50;18.65;;;;;;;13.46;100.00;101832.25;5253179;28;20032;-70
2022/07/23 01:11:27;;;;;;;31.92;19.15;;;;;;;13.42;100.00;101828.19;5258342;28;20019;-70
2022/07/23 01:13:58;;;;;;;33.13;18.83;;;;;;;13.37;100.00;101833.22;5244333;28;20043;-71
2022/07/23 01:16:28;;;;;;;32.45;19.58;;;;;;;13.32;100.00;101830.16;5265103;28;20355;-71
2022/07/23 01:18:59;;;;;;;34.53;19.20;;;;;;;13.28;100.00;101828.78;5264120;28;20498;-70
2022/07/23 01:21:31;;;;;;;32.00;18.55;;;;;;;13.26;100.00;101825.41;5251740;28;20024;-71
2022/07/23 01:24:01;;;;;;;36.55;20.45;;;;;;;13.27;100.00;101824.41;5265544;28;20112;-71
2022/07/23 01:26:38;;;;;;;37.70;19.45;;;;;;;13.30;100.00;101826.75;5260079;28;20058;-70
2022/07/23 01:29:09;;;;;;;34.60;18.63;;;;;;;13.32;100.00;101830.16;5258108;28;20066;-71
2022/07/23 01:31:39;;;;;;;34.47;18.88;;;;;;;13.28;100.00;101821.53;5244750;28;20036;-70
2022/07/23 01:34:10;;;;;;;38.15;19.52;;;;;;;13.23;100.00;101821.16;5263261;28;20451;-71
2022/07/23 01:36:40;;;;;;;38.50;18.48;;;;;;;13.19;100.00;101812.53;5252535;28;20028;-71
2022/07/23 01:39:11;;;;;;;36.33;18.77;;;;;;;13.15;100.00;101821.94;5264960;28;20024;-71
2022/07/23 01:41:42;;;;;;;37.50;20.10;;;;;;;13.13;100.00;101815.03;5265586;28;20043;-71
2022/07/23 01:44:18;;;;;;;37.88;19.15;;;;;;;13.08;100.00;101811.97;5255800;28;20021;-71
2022/07/23 01:46:48;;;;;;;32.33;17.85;;;;;;;13.02;100.00;101818.00;5260306;28;20020;-71
2022/07/23 01:49:19;;;;;;;28.13;15.60;;;;;;;12.96;100.00;101814.09;5256755;28;20024;-70
2022/07/23 01:54:42;;;;;;;38.50;20.08;;;;;;;12.94;100.00;101810.69;5268682;28;20489;-71
2022/07/23 01:57:13;;;;;;;36.15;20.58;;;;;;;12.95;100.00;101809.69;5246772;28;20031;-71
2022/07/23 01:59:45;;;;;;;37.78;19.80;;;;;;;12.98;100.00;101798.59;5264222;28;20055;-71
2022/07/23 02:02:16;;;;;;;39.35;19.65;;;;;;;13.00;100.00;101803.81;5269564;28;20108;-70
2022/07/23 02:04:48;;;;;;;41.28;21.33;;;;;;;13.06;100.00;101805.91;5255242;28;20025;-70
2022/07/23 02:07:19;;;;;;;35.55;18.23;;;;;;;13.11;100.00;101809.81;5256482;28;20074;-71
2022/07/23 02:09:53;;;;;;;42.35;21.27;;;;;;;13.15;100.00;101818.38;5262409;28;20020;-70
2022/07/23 02:12:24;;;;;;;39.03;20.92;;;;;;;13.13;100.00;101815.88;5262250;28;20111;-71
2022/07/23 02:14:54;;;;;;;41.55;20.65;;;;;;;13.12;100.00;101819.56;5268259;28;20036;-71
2022/07/23 02:17:25;;;;;;;36.33;20.45;;;;;;;13.09;100.00;101809.09;5255231;28;20128;-71
2022/07/23 02:19:56;;;;;;;38.50;21.65;;;;;;;13.07;100.00;101813.81;5259438;28;20036;-70
2022/07/23 02:22:26;;;;;;;39.85;22.30;;;;;;;13.04;100.00;101814.13;5263882;28;20028;-71
2022/07/23 02:24:57;;;;;;;40.03;22.30;;;;;;;13.02;100.00;101813.44;5268195;28;20064;-70
2022/07/23 02:27:28;;;;;;;43.25;23.05;;;;;;;12.98;100.00;101811.22;5256430;28;20024;-73
2022/07/23 02:29:59;;;;;;;38.35;21.05;;;;;;;12.94;100.00;101806.13;5259861;28;20024;-70
2022/07/23 02:32:29;;;;;;;36.47;20.55;;;;;;;12.92;100.00;101804.63;5268427;28;20382;-74
2022/07/23 02:35:00;;;;;;;36.95;20.90;;;;;;;12.91;100.00;101803.78;5254612;28;20371;-71
2022/07/23 02:37:31;;;;;;;36.92;21.02;;;;;;;12.93;100.00;101809.00;5261302;28;20032;-71
2022/07/23 02:40:02;;;;;;;38.95;21.00;;;;;;;12.90;100.00;101803.91;5248341;28;20024;-72
2022/07/23 02:42:32;;;;;;;43.20;21.80;;;;;;;12.88;100.00;101808.63;5268738;28;20072;-71
2022/07/23 02:45:03;;;;;;;36.30;20.60;;;;;;;12.84;100.00;101816.16;5267660;28;20091;-71
2022/07/23 02:47:34;;;;;;;36.72;21.10;;;;;;;12.83;100.00;101814.50;5258040;28;20028;-71
2022/07/23 02:50:05;;;;;;;41.47;22.33;;;;;;;12.80;100.00;101819.34;5250472;28;20474;-71
2022/07/23 02:52:35;;;;;;;38.55;20.33;;;;;;;12.75;100.00;101819.84;5257625;28;20024;-71
2022/07/23 02:55:06;;;;;;;46.20;23.10;;;;;;;12.72;100.00;101816.59;5251325;28;20031;-71
2022/07/23 02:57:37;;;;;;;40.78;22.30;;;;;;;12.66;100.00;101813.53;5249307;28;20508;-71
2022/07/23 03:00:09;;;;;;;45.35;22.88;;;;;;;12.64;100.00;101820.06;5266486;28;20024;-72
2022/07/23 03:02:39;;;;;;;35.08;19.00;;;;;;;12.63;100.00;101818.38;5267075;28;20032;-71
2022/07/23 03:05:10;;;;;;;39.40;20.45;;;;;;;12.64;100.00;101820.91;5255496;28;20062;-71
2022/07/23 03:07:40;;;;;;;38.47;19.85;;;;;;;12.76;100.00;101820.69;5267896;28;20059;-71
2022/07/23 03:10:11;;;;;;;40.97;21.02;;;;;;;12.77;100.00;101830.44;5267942;28;20028;-71
2022/07/23 03:12:41;;;;;;;37.05;20.60;;;;;;;12.73;100.00;101831.75;5263874;28;20036;-71
2022/07/23 03:15:12;;;;;;;33.28;18.05;;;;;;;12.70;100.00;101835.59;5257661;28;20047;-71
2022/07/23 03:17:42;;;;;;;32.75;19.20;;;;;;;12.70;100.00;101836.44;5262519;28;20037;-72
2022/07/23 03:20:13;;;;;;;37.25;19.50;;;;;;;12.68;100.00;101840.28;5246266;28;20418;-71
2022/07/23 03:22:43;;;;;;;31.88;19.25;;;;;;;12.68;100.00;101848.38;5266872;28;20381;-71
2022/07/23 03:25:14;;;;;;;37.72;19.85;;;;;;;12.64;100.00;101847.81;5252803;28;20407;-71
2022/07/23 03:27:45;;;;;;;41.47;18.63;;;;;;;12.59;100.00;101851.97;5254985;28;20024;-71
2022/07/23 03:30:15;;;;;;;44.55;21.42;;;;;;;12.52;100.00;101846.38;5254255;28;20108;-71
2022/07/23 03:32:46;;;;;;;37.17;20.60;;;;;;;12.46;100.00;101855.09;5267520;28;20568;-71
2022/07/23 03:35:16;;;;;;;38.35;20.70;;;;;;;12.40;100.00;101853.00;5266668;28;20397;-72
2022/07/23 03:37:47;;;;;;;36.35;18.92;;;;;;;12.38;100.00;101845.06;5256834;28;20103;-71
2022/07/23 03:40:17;;;;;;;32.00;18.25;;;;;;;12.37;100.00;101850.63;5250765;28;20027;-71
2022/07/23 03:42:48;;;;;;;34.50;18.13;;;;;;;12.39;100.00;101856.69;5255436;28;20545;-71
2022/07/23 03:45:18;;;;;;;34.25;18.80;;;;;;;12.38;100.00;101855.84;5265140;28;20073;-71
2022/07/23 03:47:49;;;;;;;36.78;18.42;;;;;;;12.38;100.00;101863.06;5255010;28;20024;-72
2022/07/23 03:50:19;;;;;;;38.47;19.77;;;;;;;12.37;100.00;101859.53;5245917;28;20089;-72
2022/07/23 03:52:50;;;;;;;32.92;17.50;;;;;;;12.38;100.00;101861.22;5259814;28;20078;-71
2022/07/23 03:55:20;;;;;;;35.65;17.40;;;;;;;12.39;100.00;101865.59;5254016;28;20024;-71
2022/07/23 03:57:51;;;;;;;32.97;17.30;;;;;;;12.38;100.00;101871.97;5248252;28;20074;-71
2022/07/23 04:00:21;;;;;;;31.67;17.98;;;;;;;12.31;100.00;101870.91;5267344;28;20024;-71
2022/07/23 04:02:52;;;;;;;35.28;19.60;;;;;;;12.25;100.00;101867.97;5250324;28;20032;-71
2022/07/23 04:05:22;;;;;;;44.03;15.98;;;;;;;12.21;100.00;101875.50;5245492;28;20019;-71
2022/07/23 04:07:53;;;;;;;56.22;14.50;;;;;;;12.13;100.00;101878.94;5245780;28;20486;-71
2022/07/23 04:10:23;;;;;;;42.53;14.75;;;;;;;12.06;100.00;101875.19;5256756;28;20031;-71
2022/07/23 04:12:54;;;;;;;24.17;14.20;;;;;;;12.00;100.00;101877.59;5260879;28;20070;-71
2022/07/23 04:15:24;;;;;;;26.95;14.30;;;;;;;11.98;100.00;101877.78;5244315;28;20374;-71
2022/07/23 04:17:55;;;;;;;21.90;14.02;;;;;;;11.96;100.00;101878.94;5264949;28;20047;-71
2022/07/23 04:20:25;;;;;;;24.23;13.98;;;;;;;11.95;100.00;101886.16;5256749;28;20478;-71
2022/07/23 04:22:56;;;;;;;24.77;14.52;;;;;;;11.95;100.00;101886.16;5265867;28;20024;-72
2022/07/23 04:25:26;;;;;;;27.75;15.35;;;;;;;11.95;100.00;101880.78;5251174;28;20084;-72
2022/07/23 04:27:57;;;;;;;31.98;16.65;;;;;;;11.96;100.00;101874.41;5257930;28;20024;-71
2022/07/23 04:30:27;;;;;;;29.80;16.63;;;;;;;11.94;100.00;101881.75;5262964;28;20294;-71
2022/07/23 04:32:58;;;;;;;33.08;18.80;;;;;;;11.96;100.00;101873.56;5254580;28;20065;-71
2022/07/23 04:35:28;;;;;;;26.75;14.52;;;;;;;11.97;100.00;101869.84;5251050;28;20393;-72
2022/07/23 04:37:59;;;;;;;21.13;12.95;;;;;;;11.98;100.00;101872.38;5265275;28;20103;-71
2022/07/23 04:40:29;;;;;;;30.33;16.30;;;;;;;12.00;100.00;101881.16;5265559;28;20477;-71
2022/07/23 04:43:00;;;;;;;27.38;15.63;;;;;;;12.04;100.00;101882.53;5252739;28;20036;-71
2022/07/23 04:45:30;;;;;;;25.90;15.40;;;;;;;12.07;100.00;101887.63;5263638;28;20022;-71
2022/07/23 04:48:01;;;;;;;29.85;16.58;;;;;;;12.12;100.00;101887.19;5251435;28;20020;-72
2022/07/23 04:50:31;;;;;;;34.33;16.33;;;;;;;12.16;100.00;101892.09;5265307;28;20420;-71
2022/07/23 04:53:02;;;;;;;30.63;16.23;;;;;;;12.22;100.00;101895.19;5263778;28;20027;-71
2022/07/23 04:55:33;;;;;;;29.20;16.35;;;;;;;12.28;100.00;101900.81;5243347;28;20021;-71
2022/07/23 04:58:03;;;;;;;33.42;16.63;;;;;;;12.33;100.00;101893.13;5244353;28;20028;-71
2022/07/23 05:00:34;;;;;;;39.63;17.63;;;;;;;12.40;100.00;101898.75;5253995;28;20032;-71
2022/07/23 05:03:04;;;;;;;33.00;18.60;;;;;;;12.48;100.00;101900.66;5247480;28;20430;-71
2022/07/23 05:05:36;;;;;;;35.25;18.17;;;;;;;12.57;100.00;101894.38;5255793;28;20024;-71
2022/07/23 05:08:06;;;;;;;33.92;18.20;;;;;;;12.66;100.00;101888.91;5264733;28;20056;-71
2022/07/23 05:10:37;;;;;;;31.52;17.23;;;;;;;12.76;100.00;101896.06;5251916;28;20027;-71
2022/07/23 05:13:07;;;;;;;37.42;20.80;;;;;;;12.86;100.00;101903.06;5225604;28;1110940;-71
2022/07/23 05:15:38;;;;;;;40.65;20.15;;;;;;;12.98;100.00;101911.72;5263708;28;20031;-71
2022/07/23 05:18:08;;;;;;;41.65;19.52;;;;;;;13.11;100.00;101904.09;5253236;28;20024;-71
2022/07/23 05:20:39;;;;;;;36.30;20.40;;;;;;;13.24;100.00;101909.09;5257446;28;20013;-71
2022/07/23 05:23:09;;;;;;;36.00;20.80;;;;;;;13.36;100.00;101897.06;5264849;28;20054;-71
2022/07/23 05:25:40;;;;;;;36.22;20.45;;;;;;;13.45;100.00;101901.50;5264895;28;20496;-71
2022/07/23 05:28:11;;;;;;;35.83;18.88;;;;;;;13.57;100.00;101910.16;5258160;28;20337;-71
2022/07/23 05:30:41;;;;;;;39.90;21.08;;;;;;;13.68;100.00;101901.78;5251964;28;20057;-71
2022/07/23 05:33:12;;;;;;;31.83;18.40;;;;;;;13.81;100.00;101908.59;5265513;28;20024;-71
2022/07/23 05:35:42;;;;;;;33.40;18.98;;;;;;;13.96;100.00;101904.28;5264876;28;20043;-71
2022/07/23 05:38:13;;;;;;;28.98;17.48;;;;;;;14.09;100.00;101912.72;5265271;28;20504;-72
2022/07/23 05:40:43;;;;;;;30.80;17.45;;;;;;;14.20;100.00;101915.13;5257604;28;20120;-71
2022/07/23 05:43:14;;;;;;;33.78;18.20;;;;;;;14.32;100.00;101912.13;5245682;28;20028;-70
2022/07/23 05:45:44;;;;;;;32.22;18.20;;;;;;;14.43;100.00;101909.97;5255987;28;20040;-71
2022/07/23 05:48:15;;;;;;;35.78;18.92;;;;;;;14.54;100.00;101914.22;5247382;28;20025;-71
2022/07/23 05:50:47;;;;;;;27.73;16.77;;;;;;;14.67;100.00;101922.69;5265600;28;20411;-71
2022/07/23 05:53:17;;;;;;;25.48;15.63;;;;;;;14.84;100.00;101923.53;5251560;28;20016;-71
2022/07/23 05:55:48;;;;;;;24.17;16.05;;;;;;;14.97;100.00;101917.66;5261043;28;20028;-70
2022/07/23 05:58:18;;;;;;;26.70;16.35;;;;;;;15.08;100.00;101911.91;5249876;28;20028;-71
2022/07/23 06:00:49;;;;;;;31.63;18.00;;;;;;;15.24;100.00;101916.44;5252582;28;20024;-71
2022/07/23 06:03:19;;;;;;;24.83;15.30;;;;;;;15.58;100.00;101918.06;5257789;28;20111;-71
2022/07/23 06:05:50;;;;;;;24.00;15.00;;;;;;;16.08;100.00;101923.16;5257543;28;20016;-71
2022/07/23 06:08:20;;;;;;;26.92;13.85;;;;;;;16.88;100.00;101922.88;5265443;28;20024;-70
2022/07/23 06:10:51;;;;;;;20.38;13.93;;;;;;;17.82;100.00;101916.03;5265273;28;20424;-71
2022/07/23 06:13:21;;;;;;;17.30;12.48;;;;;;;18.88;100.00;101902.81;5265014;28;20111;-71
2022/07/23 06:15:52;;;;;;;17.63;12.13;;;;;;;19.51;100.00;101902.88;5264089;28;20073;-71
2022/07/23 06:18:22;;;;;;;16.85;11.00;;;;;;;19.92;100.00;101902.91;5255185;28;20028;-71
2022/07/23 06:20:54;;;;;;;13.90;10.43;;;;;;;19.95;100.00;101905.25;5252710;28;20107;-71
2022/07/23 06:23:25;;;;;;;19.10;10.88;;;;;;;20.16;100.00;101896.94;5254296;28;20382;-71
2022/07/23 06:25:55;;;;;;;15.13;10.02;;;;;;;20.41;100.00;101899.13;5249105;28;20028;-71
2022/07/23 06:28:25;;;;;;;14.70;9.25;;;;;;;20.48;100.00;101899.16;5256526;28;20427;-71
2022/07/23 06:30:56;;;;;;;16.85;9.45;;;;;;;20.45;100.00;101900.38;5258629;28;20244;-71
2022/07/23 06:33:27;;;;;;;16.67;8.90;;;;;;;20.39;100.00;101896.59;5245056;28;20478;-71
2022/07/23 06:35:57;;;;;;;12.60;8.23;;;;;;;20.57;100.00;101896.03;5260659;28;20025;-71
2022/07/23 06:38:28;;;;;;;12.50;8.88;;;;;;;20.62;100.00;101903.59;5248819;28;20432;-70
2022/07/23 06:40:58;;;;;;;11.52;8.30;;;;;;;20.39;100.00;101903.94;5268680;28;20024;-71
2022/07/23 06:43:31;;;;;;;11.90;8.63;;;;;;;20.19;100.00;101903.88;5268408;28;20107;-70
2022/07/23 06:46:01;;;;;;;11.38;7.70;;;;;;;20.32;100.00;101900.34;5267673;28;20047;-70
2022/07/23 06:48:34;;;;;;;14.00;7.78;;;;;;;20.62;100.00;101914.50;5268027;28;20023;-71
2022/07/23 06:51:04;;;;;;;12.85;8.43;;;;;;;21.41;100.00;101922.72;5268782;28;20038;-70
2022/07/23 06:53:35;;;;;;;9.70;7.20;;;;;;;21.79;100.00;101924.78;5254089;28;20020;-70
2022/07/23 06:56:05;;;;;;;12.63;8.20;;;;;;;21.38;100.00;101927.78;5260234;28;20033;-70
2022/07/23 06:58:36;;;;;;;14.38;8.18;;;;;;;21.31;100.00;101919.59;5247160;28;20437;-71
2022/07/23 07:01:06;;;;;;;11.55;7.93;;;;;;;21.35;100.00;101923.59;5247504;28;20028;-70
2022/07/23 07:03:37;;;;;;;16.45;8.18;;;;;;;21.72;100.00;101926.66;5247362;28;20390;-70
2022/07/23 07:06:08;;;;;;;12.45;7.03;;;;;;;22.40;100.00;101931.69;5259582;28;20035;-70
2022/07/23 07:08:38;;;;;;;13.32;7.75;;;;;;;23.03;100.00;101934.44;5257456;28;20016;-70
2022/07/23 07:11:09;;;;;;;12.77;7.95;;;;;;;23.41;100.00;101931.59;5254568;28;20024;-70
2022/07/23 07:13:40;;;;;;;12.15;8.40;;;;;;;23.84;100.00;101944.44;5267762;28;20032;-70
2022/07/23 07:16:10;;;;;;;12.43;7.93;;;;;;;24.08;100.00;101922.66;5253175;28;20032;-71
2022/07/23 07:18:41;;;;;;;15.23;8.07;;;;;;;24.43;100.00;101934.66;5267656;28;20027;-71
2022/07/23 07:21:12;;;;;;;14.20;7.70;;;;;;;24.64;100.00;101936.06;5259184;28;20061;-71
2022/07/23 07:23:42;;;;;;;9.70;6.40;;;;;;;25.17;100.00;101940.75;5254005;28;20020;-71
2022/07/23 07:26:13;;;;;;;12.23;7.70;;;;;;;24.93;100.00;101941.75;5259473;28;20020;-71
2022/07/23 07:28:43;;;;;;;15.95;8.50;;;;;;;24.80;100.00;101951.03;5261121;28;20051;-71
2022/07/23 07:31:14;;;;;;;11.98;7.80;;;;;;;24.89;100.00;101946.03;5267687;28;20035;-71
2022/07/23 07:33:44;;;;;;;11.45;7.35;;;;;;;25.05;100.00;101948.94;5253710;28;20158;-71
2022/07/23 07:36:15;;;;;;;10.95;7.50;;;;;;;25.34;100.00;101951.84;5267024;28;20039;-71
2022/07/23 07:38:45;;;;;;;9.98;7.03;;;;;;;25.13;100.00;101949.69;5267549;28;20023;-71
2022/07/23 07:41:16;;;;;;;11.27;7.47;;;;;;;25.03;100.00;101942.00;5255500;28;20012;-71
2022/07/23 07:43:46;;;;;;;11.13;7.53;;;;;;;25.45;100.00;101945.56;5246300;28;20028;-71
2022/07/23 07:46:17;;;;;;;9.38;7.03;;;;;;;26.02;100.00;101948.50;5258001;28;20521;-71
2022/07/23 07:48:47;;;;;;;8.63;5.90;;;;;;;26.67;98.09;101955.59;5253334;28;20031;-71
2022/07/23 07:51:18;;;;;;;7.68;6.50;;;;;;;26.49;100.00;101953.84;5253851;28;20052;-71
2022/07/23 07:53:48;;;;;;;8.52;5.45;;;;;;;26.37;97.36;101966.81;5259378;28;20028;-71
2022/07/23 07:56:19;;;;;;;10.55;7.55;;;;;;;26.06;100.00;101962.59;5246591;28;20028;-71
2022/07/23 07:58:49;;;;;;;10.15;6.38;;;;;;;26.06;100.00;101959.84;5267003;28;20478;-71
2022/07/23 08:01:20;;;;;;;10.18;6.40;;;;;;;26.36;100.00;101967.88;5264333;28;20043;-71
2022/07/23 08:03:50;;;;;;;9.55;6.22;;;;;;;26.85;94.63;101971.03;5245880;28;20100;-71
2022/07/23 08:06:21;;;;;;;11.55;6.40;;;;;;;27.12;86.47;101974.03;5244955;28;20024;-71
2022/07/23 08:08:51;;;;;;;11.93;6.45;;;;;;;26.71;100.00;101975.16;5257702;28;20024;-71
2022/07/23 08:11:22;;;;;;;8.38;5.63;;;;;;;26.91;94.54;101971.94;5247572;28;20020;-71
2022/07/23 08:13:52;;;;;;;14.07;6.45;;;;;;;26.80;90.61;101973.69;5245441;28;20042;-71
2022/07/23 08:16:23;;;;;;;10.30;6.40;;;;;;;26.71;93.08;101966.91;5265223;28;20481;-71
2022/07/23 08:18:53;;;;;;;9.57;6.30;;;;;;;26.21;90.65;101976.66;5252640;28;20024;-71
2022/07/23 08:21:24;;;;;;;9.55;5.93;;;;;;;26.17;93.53;101972.72;5249628;28;20020;-71
2022/07/23 08:23:54;;;;;;;10.32;6.40;;;;;;;26.27;94.76;101963.84;5260549;28;20016;-71
2022/07/23 08:26:25;;;;;;;11.30;6.55;;;;;;;26.66;95.01;101964.06;5257108;28;20020;-71
2022/07/23 08:28:55;;;;;;;18.52;6.65;;;;;;;26.65;88.43;101965.16;5259032;28;20539;-71
2022/07/23 08:31:26;;;;;;;10.52;6.05;;;;;;;27.08;92.59;101964.59;5255276;28;20139;-71
2022/07/23 08:33:57;;;;;;;9.23;6.40;;;;;;;26.78;79.94;101959.34;5266216;28;20024;-71
2022/07/23 08:36:27;;;;;;;9.20;5.70;;;;;;;27.50;76.45;101951.19;5265986;28;20525;-71
2022/07/23 08:38:59;;;;;;;11.88;5.57;;;;;;;27.56;79.02;101958.47;5266345;28;20020;-71
2022/07/23 08:41:29;;;;;;;7.13;5.47;;;;;;;27.86;77.28;101955.34;5254166;28;20025;-71
2022/07/23 08:44:00;;;;;;;10.90;7.03;;;;;;;27.39;76.08;101957.66;5264116;28;20020;-71
2022/07/23 08:46:31;;;;;;;8.45;6.75;;;;;;;26.84;79.42;101961.94;5264829;28;20420;-71
2022/07/23 08:49:03;;;;;;;12.65;7.25;;;;;;;26.65;83.50;101963.22;5266263;28;20031;-71
2022/07/23 08:51:34;;;;;;;9.18;6.63;;;;;;;26.80;89.27;101963.50;5266093;28;20020;-71
2022/07/23 08:54:04;;;;;;;10.80;6.75;;;;;;;27.03;83.36;101957.03;5265778;28;20393;-71
2022/07/23 08:56:35;;;;;;;7.68;5.38;;;;;;;27.91;74.88;101962.81;5257685;28;20031;-71
2022/07/23 08:59:05;;;;;;;12.23;7.03;;;;;;;27.87;76.25;101965.28;5265944;28;20024;-71
2022/07/23 09:01:37;;;;;;;10.45;7.30;;;;;;;27.82;80.33;101959.69;5248294;28;20038;-71
2022/07/23 09:04:07;;;;;;;12.40;7.03;;;;;;;27.58;78.66;101961.81;5244435;28;20108;-71
2022/07/23 09:06:39;;;;;;;13.90;7.55;;;;;;;27.10;78.32;101960.47;5263757;28;20528;-71
2022/07/23 09:09:30;;;;;;;9.90;6.68;;;;;;;26.82;84.86;101968.78;5264580;28;20032;-71
2022/07/23 09:12:04;;;;;;;11.20;6.75;;;;;;;27.38;80.58;101966.19;5256035;28;20050;-71
2022/07/23 09:14:53;;;;;;;10.15;5.88;;;;;;;27.21;75.15;101955.13;5251440;28;20501;-71
2022/07/23 09:17:23;;;;;;;9.20;6.03;;;;;;;27.28;74.79;101966.84;5251985;28;20036;-71
2022/07/23 09:20:13;;;;;;;8.80;6.53;;;;;;;27.38;73.18;101969.75;5261513;28;20028;-71
2022/07/23 09:22:46;;;;;;;10.55;5.82;;;;;;;27.31;76.32;101967.19;5258408;28;20028;-71
2022/07/23 09:25:19;;;;;;;11.30;6.30;;;;;;;27.63;73.65;101964.63;5257754;28;20020;-71
2022/07/23 09:28:07;;;;;;;8.45;5.20;;;;;;;28.32;71.01;101968.88;5257784;28;20024;-71
2022/07/23 09:30:41;;;;;;;7.60;5.18;;;;;;;28.71;64.24;101957.72;5252006;28;20024;-71
2022/07/23 09:33:14;;;;;;;8.32;5.78;;;;;;;27.85;72.65;101961.94;5265530;28;20028;-71
2022/07/23 09:36:04;;;;;;;10.50;6.40;;;;;;;27.25;69.55;101957.16;5258760;28;20428;-71
2022/07/23 09:38:47;;;;;;;10.55;6.40;;;;;;;27.39;73.49;101957.66;5246951;28;20525;-71
2022/07/23 09:41:17;;;;;;;8.68;5.32;;;;;;;27.34;71.59;101955.66;5265539;28;20020;-72
2022/07/23 09:43:54;;;;;;;11.55;6.47;;;;;;;27.25;70.52;101956.31;5251493;28;20038;-71
2022/07/23 09:46:27;;;;;;;9.93;6.25;;;;;;;27.36;75.08;101952.63;5250962;28;20016;-71
2022/07/23 09:48:58;;;;;;;11.82;6.10;;;;;;;27.07;73.25;101947.22;5257723;28;20452;-71
2022/07/23 09:51:38;;;;;;;9.63;6.13;;;;;;;27.43;70.34;101958.00;5259761;28;20111;-71
2022/07/23 09:54:22;;;;;;;10.65;6.20;;;;;;;27.48;74.47;101955.31;5264775;28;20043;-71
2022/07/23 09:56:54;;;;;;;8.90;6.35;;;;;;;27.47;70.53;101950.88;5244901;28;20561;-71
2022/07/23 09:59:30;;;;;;;7.60;5.93;;;;;;;26.95;73.04;101965.69;5244418;28;20482;-71
2022/07/23 10:02:01;;;;;;;7.95;5.30;;;;;;;26.85;71.68;101957.25;5265384;28;20020;-71
2022/07/23 10:04:32;;;;;;;8.43;3.75;;;;;;;26.99;72.54;101947.59;5250900;28;20228;-71
2022/07/23 10:07:05;;;;;;;7.70;3.40;;;;;;;27.30;66.18;101942.63;5265026;28;20060;-71
2022/07/23 10:09:38;;;;;;;7.95;5.43;;;;;;;27.50;68.93;101948.44;5253479;28;20103;-71
2022/07/23 10:14:44;;;;;;;9.90;6.15;;;;;;;27.24;67.26;101954.66;5253867;28;20494;-71
2022/07/23 10:17:15;;;;;;;9.13;5.60;;;;;;;27.68;71.96;101955.59;5268946;28;20610;-71
2022/07/23 10:19:46;;;;;;;6.75;4.65;;;;;;;28.45;60.09;101953.88;5252032;28;20056;-72
2022/07/23 10:22:37;;;;;;;6.75;3.80;;;;;;;28.39;59.02;101958.50;5261600;28;20084;-72
2022/07/23 10:25:32;;;;;;;7.60;4.45;;;;;;;28.04;64.60;101956.94;5259556;28;20401;-72
2022/07/23 10:28:06;;;;;;;8.82;4.25;;;;;;;27.87;62.25;101958.94;5253280;28;20024;-72
2022/07/23 10:30:55;;;;;;;5.78;3.70;;;;;;;27.73;64.32;101957.63;5268736;28;20022;-71
2022/07/23 10:34:00;;;;;;;5.72;3.88;;;;;;;27.78;66.16;101955.78;5255006;28;20068;-71
2022/07/23 10:36:50;;;;;;;8.65;5.20;;;;;;;27.61;63.88;101949.41;5246987;28;20037;-71
2022/07/23 10:39:28;;;;;;;3.17;2.78;;;;;;;28.07;62.82;101953.69;5247682;28;20056;-72
2022/07/23 10:42:17;;;;;;;4.45;3.33;;;;;;;27.96;58.91;101960.13;5264138;28;20026;-72
2022/07/23 10:44:48;;;;;;;4.55;3.35;;;;;;;27.78;59.80;101953.03;5267364;28;20103;-72
2022/07/23 10:47:40;;;;;;;3.53;2.50;;;;;;;27.80;58.01;101953.59;5247444;28;20458;-72
2022/07/23 10:50:31;;;;;;;7.20;3.63;;;;;;;27.68;57.29;101952.03;5247390;28;20035;-71
2022/07/23 10:53:20;;;;;;;7.55;3.17;;;;;;;27.63;55.28;101958.28;5246637;28;20107;-71
2022/07/23 10:55:52;;;;;;;3.72;2.92;;;;;;;27.46;58.57;101955.56;5251622;28;20111;-71
2022/07/23 10:58:58;;;;;;;6.75;3.38;;;;;;;27.40;60.58;101951.03;5251468;28;20366;-72
2022/07/23 11:01:47;;;;;;;4.85;3.03;;;;;;;27.53;58.91;101950.69;5254285;28;20393;-71
2022/07/23 11:04:18;;;;;;;4.28;2.88;;;;;;;27.57;59.56;101951.88;5253454;28;20036;-72
2022/07/23 11:06:48;;;;;;;5.75;2.47;;;;;;;27.83;59.81;101947.56;5268118;28;20385;-71
2022/07/23 11:09:37;;;;;;;4.97;3.30;;;;;;;27.91;56.85;101942.69;5265717;28;20489;-72
2022/07/23 11:12:21;;;;;;;5.95;3.13;;;;;;;27.99;58.05;101939.50;5258956;28;20035;-72
2022/07/23 11:15:07;;;;;;;7.18;2.33;;;;;;;28.01;55.46;101934.56;5240989;28;20032;-71
2022/07/23 11:17:55;;;;;;;5.80;2.20;;;;;;;27.80;56.91;101937.03;5264820;28;20115;-71
2022/07/23 11:20:27;;;;;;;7.45;3.35;;;;;;;27.68;57.47;101939.06;5247108;28;20127;-71
2022/07/23 11:22:59;;;;;;;3.65;2.90;;;;;;;27.45;59.04;101933.75;5268182;28;20034;-72
2022/07/23 11:25:33;;;;;;;6.05;2.20;;;;;;;27.38;58.02;101936.69;5267086;28;20016;-71
2022/07/23 11:28:25;;;;;;;7.15;1.83;;;;;;;27.36;52.13;101931.44;5250507;28;20452;-71
2022/07/23 11:30:57;;;;;;;2.10;1.30;;;;;;;27.34;51.46;101927.25;5252996;28;20109;-72
2022/07/23 11:33:27;;;;;;;3.25;2.22;;;;;;;27.33;52.57;101925.59;5253383;28;20028;-72
2022/07/23 11:36:03;;;;;;;3.70;2.10;;;;;;;27.29;55.64;101916.16;5246240;28;20421;-72
2022/07/23 11:38:37;;;;;;;2.88;1.90;;;;;;;27.52;57.67;101918.72;5248496;28;20028;-72